Terminal Aerodrome Forecast
Issued by NWS

Home | Current Version | Previous Version | Text Only | Print | Product List | Glossary On
Versions: 1 2 3 4 5 6 7 8 9 10 11 12 13
000
FTUS45 KPSR 251720
TAFIWA
TAF
KIWA 251720Z 2518/2618 28022G30KT P6SM SCT250
      TEMPO 2521/2601 6SM BLDU
     FM260300 30012G18KT P6SM SCT250
     FM260700 31006KT P6SM FEW250
     FM261200 08005KT P6SM FEW250=

USA.gov is the U.S. government's official web portal to all federal, state and local government web resources and services.